Latest Weather Observations for Bridgetown

IDW60801

Issued at 6:02 pm WST Tuesday 28 April 2015 (issued every 30 minutes, with the page automatically refreshed every 10 minutes)

About weather observations | Map of weather stations | Latest weather observations for WA | Other Formats
Station Details ID: 009617 Name: BRIDGETOWN Lat: -33.95 Lon: 116.13 Height: 178.66 m
Data from the previous 72 hours. | See also: Recent months at Bridgetown
Date/Time
WST
Temp
°C
App
Temp
°C
Dew
Point
Rel
Hum
%
Delta-T
°C
Wind Press
QNH
hPa
Press
MSL
hPa
Rain
since 9 am
mm
Dir
 
Spd
km/h
Gust
km/h
Spd
kts
Gust
kts
28/06:00pm 17.6 18.0 11.2 66 3.5 CALM 0 0 0 0 1021.7 1021.4 0.0
28/05:30pm 19.0 19.3 10.8 59 4.5 CALM 0 0 0 0 1021.4 1021.1 0.0
28/05:00pm 20.6 20.1 9.5 49 6.0 NNW 2 4 1 2 1021.2 1020.9 0.0
28/04:30pm 22.3 21.5 9.5 44 7.0 N 4 7 2 4 1020.9 1020.6 0.0
28/04:00pm 22.5 20.7 7.1 37 8.0 N 6 7 3 4 1020.9 1020.6 0.0
28/03:30pm 22.3 20.6 7.7 39 7.7 N 6 11 3 6 1021.0 1020.7 0.0
28/03:00pm 22.3 20.0 7.3 38 7.8 N 9 17 5 9 1020.8 1020.5 0.0
28/02:30pm 22.3 19.1 6.9 37 8.0 N 13 19 7 10 1020.7 1020.4 0.0
28/02:00pm 22.7 20.5 8.0 39 7.8 N 9 13 5 7 1020.8 1020.5 0.0
28/01:30pm 22.3 19.6 7.3 38 7.8 N 11 19 6 10 1021.2 1020.9 0.0
28/01:00pm 22.1 19.2 6.3 36 8.1 N 11 19 6 10 1021.7 1021.4 0.0
28/12:30pm 22.3 19.4 6.5 36 8.1 N 11 19 6 10 1021.5 1021.2 0.0
28/12:00pm 22.1 19.2 6.3 36 8.1 NNE 11 15 6 8 1022.0 1021.7 0.0
28/11:30am 21.0 17.1 6.9 40 7.2 N 17 24 9 13 1022.9 1022.6 0.0
28/11:00am 20.4 17.6 7.1 42 6.8 NNE 11 19 6 10 1023.3 1023.0 0.0
28/10:30am 19.7 18.2 8.4 48 5.9 NE 6 9 3 5 1023.5 1023.2 0.0
28/10:00am 17.9 15.9 7.3 50 5.4 ENE 7 13 4 7 1023.6 1023.3 0.0
28/09:30am 16.7 14.8 6.8 52 4.9 NNE 6 11 3 6 1023.9 1023.6 0.0
28/09:00am 15.7 13.7 7.2 57 4.2 ENE 7 11 4 6 1024.3 1024.0 0.0
28/08:30am 13.5 12.8 8.4 71 2.6 SSE 2 6 1 3 1024.3 1024.0 0.0
28/08:00am 10.3 9.4 9.2 93 0.5 SSE 4 6 2 3 1024.3 1024.0 0.0
28/07:30am 8.2 7.3 7.6 96 0.3 S 2 4 1 2 1024.3 1024.0 0.0
28/07:00am 6.6 5.1 4.9 89 0.7 S 2 6 1 3 1024.3 1024.0 0.0
28/06:30am 7.5 5.8 6.1 91 0.6 S 4 6 2 3 1024.0 1023.7 0.0
28/06:00am 6.6 5.4 6.3 98 0.1 S 2 4 1 2 1024.1 1023.8 0.0
28/05:30am 6.5 5.2 6.2 98 0.1 S 2 6 1 3 1024.0 1023.7 0.0
28/05:00am 8.2 7.5 7.1 93 0.5 CALM 0 2 0 1 1024.0 1023.7 0.0
28/04:30am 6.8 6.0 6.5 98 0.1 CALM 0 0 0 0 1024.0 1023.7 0.0
28/04:00am 7.1 5.8 6.0 93 0.5 S 2 6 1 3 1023.7 1023.4 0.0
28/03:30am 6.5 5.6 6.2 98 0.1 CALM 0 4 0 2 1023.9 1023.6 0.0
28/03:00am 6.4 5.1 6.1 98 0.1 S 2 4 1 2 1024.0 1023.7 0.0
28/02:30am 6.6 5.0 6.3 98 0.1 SSE 4 6 2 3 1024.3 1024.0 0.0
28/02:00am 6.8 6.0 6.5 98 0.1 CALM 0 4 0 2 1024.3 1024.0 0.0
28/01:30am 7.0 6.2 6.7 98 0.1 CALM 0 0 0 0 1024.4 1024.1 0.0
28/01:00am 7.1 6.4 7.0 99 0.0 CALM 0 0 0 0 1024.5 1024.2 0.0
28/12:30am 7.4 6.7 7.1 98 0.1 CALM 0 0 0 0 1024.7 1024.4 0.0
28/12:00am 7.1 6.4 7.0 99 0.0 CALM 0 0 0 0 1024.8 1024.5 0.0
 
Date/Time
WST
Temp
°C
App
Temp
°C
Dew
Point
Rel
Hum
%
Delta-T
°C
Wind Press
QNH
hPa
Press
MSL
hPa
Rain
since 9 am
mm
Dir
 
Spd
km/h
Gust
km/h
Spd
kts
Gust
kts
27/11:30pm 8.1 7.6 8.0 99 0.0 CALM 0 0 0 0 1025.0 1024.8 0.0
27/11:00pm 7.9 7.4 7.8 99 0.0 CALM 0 0 0 0 1025.2 1025.0 0.0
27/10:30pm 8.1 7.6 7.8 98 0.1 CALM 0 0 0 0 1025.2 1025.0 0.0
27/10:00pm 8.6 8.2 8.3 98 0.1 CALM 0 0 0 0 1025.3 1025.1 0.0
27/09:30pm 9.3 8.9 8.2 93 0.5 CALM 0 0 0 0 1025.1 1024.9 0.0
27/09:00pm 9.3 8.8 7.9 91 0.7 CALM 0 0 0 0 1025.2 1025.0 0.0
27/08:30pm 9.6 9.1 7.9 89 0.8 CALM 0 0 0 0 1025.3 1025.1 0.0
27/08:00pm 9.4 8.8 7.5 88 0.9 CALM 0 0 0 0 1025.2 1025.0 0.0
27/07:30pm 10.1 9.5 7.2 82 1.4 CALM 0 0 0 0 1025.1 1024.9 0.0
27/07:00pm 11.2 10.4 6.7 74 2.1 CALM 0 0 0 0 1025.1 1024.9 0.0
27/06:30pm 12.7 11.9 6.7 67 2.9 CALM 0 0 0 0 1024.9 1024.7 0.0
27/06:00pm 16.0 15.0 5.6 50 5.0 CALM 0 0 0 0 1024.9 1024.7 0.0
27/05:30pm 18.9 17.0 4.7 39 6.9 E 4 6 2 3 1024.7 1024.4 0.0
27/05:00pm 19.9 17.3 4.4 36 7.5 E 7 13 4 7 1024.5 1024.2 0.0
27/04:30pm 20.7 17.7 4.3 34 8.0 ENE 9 20 5 11 1024.4 1024.1 0.0
27/04:00pm 21.1 18.9 5.1 35 7.9 ENE 6 15 3 8 1024.4 1024.1 0.0
27/03:30pm 21.0 17.7 4.6 34 8.1 NE 11 19 6 10 1024.4 1024.1 0.0
27/03:00pm 21.0 17.2 4.1 33 8.2 NE 13 26 7 14 1024.5 1024.2 0.0
27/02:30pm 21.2 18.4 5.1 35 8.0 E 9 20 5 11 1024.5 1024.2 0.0
27/02:00pm 20.9 17.7 5.3 36 7.7 NE 11 24 6 13 1024.6 1024.3 0.0
27/01:30pm 20.8 17.3 5.6 37 7.6 NE 13 24 7 13 1024.8 1024.5 0.0
27/01:00pm 20.6 17.3 6.5 40 7.1 NNE 13 26 7 14 1025.0 1024.8 0.0
27/12:30pm 20.5 17.4 7.2 42 6.8 NE 13 24 7 13 1025.6 1025.4 0.0
27/12:00pm 20.0 16.5 7.1 43 6.6 NE 15 24 8 13 1026.1 1025.9 0.0
27/11:30am 19.4 16.4 7.5 46 6.1 NE 13 24 7 13 1026.9 1026.6 0.0
27/11:00am 18.3 14.9 7.7 50 5.4 NE 15 24 8 13 1027.2 1026.9 0.0
27/10:30am 17.8 15.4 8.6 55 4.8 ENE 11 20 6 11 1027.4 1027.1 0.0
27/10:00am 16.7 14.7 8.7 59 4.1 NE 9 20 5 11 1027.8 1027.5 0.0
27/09:30am 15.8 14.2 8.8 63 3.6 E 7 11 4 6 1028.1 1027.8 0.0
27/09:00am 14.2 13.0 9.6 74 2.4 SSE 6 9 3 5 1028.2 1027.9 0.0
27/08:30am 13.1 12.5 10.5 84 1.4 SE 4 9 2 5 1027.9 1027.6 0.0
27/08:00am 11.2 10.8 11.0 99 0.1 S 4 7 2 4 1027.8 1027.5 0.0
27/07:30am 8.8 7.8 8.8 100 0.0 S 4 6 2 3 1027.6 1027.3 0.0
27/07:00am 6.9 5.8 6.9 100 0.0 S 2 6 1 3 1027.5 1027.2 0.0
27/06:30am 7.7 6.8 7.7 100 0.0 S 2 4 1 2 1027.4 1027.1 0.0
27/06:00am 7.9 7.0 7.8 99 0.0 SSW 2 4 1 2 1027.2 1026.9 0.0
27/05:30am 8.8 8.5 8.8 100 0.0 CALM 0 0 0 0 1027.2 1026.9 0.0
27/05:00am 9.1 8.1 9.0 99 0.0 S 4 7 2 4 1027.2 1026.9 0.0
27/04:30am 10.4 9.3 10.1 98 0.2 S 6 7 3 4 1027.1 1026.8 0.0
27/04:00am 10.5 9.5 10.2 98 0.2 S 6 7 3 4 1027.0 1026.7 0.0
27/03:30am 10.7 9.7 10.4 98 0.2 S 6 9 3 5 1026.9 1026.6 0.0
27/03:00am 10.9 10.0 10.6 98 0.2 SSE 6 11 3 6 1027.1 1026.8 0.0
27/02:30am 11.1 10.6 10.8 98 0.2 ESE 4 9 2 5 1027.2 1026.9 0.0
27/02:00am 11.4 10.9 10.8 96 0.3 ESE 4 9 2 5 1027.2 1026.9 0.0
27/01:30am 11.4 11.1 10.1 92 0.7 SE 2 6 1 3 1027.4 1027.1 0.0
27/01:00am 11.6 11.2 9.7 88 1.0 ESE 2 7 1 4 1027.5 1027.2 0.0
27/12:30am 11.7 10.8 9.4 86 1.2 ESE 4 9 2 5 1027.6 1027.3 0.0
27/12:00am 12.0 10.8 9.6 85 1.2 ESE 6 9 3 5 1027.6 1027.3 0.0
 
Date/Time
WST
Temp
°C
App
Temp
°C
Dew
Point
Rel
Hum
%
Delta-T
°C
Wind Press
QNH
hPa
Press
MSL
hPa
Rain
since 9 am
mm
Dir
 
Spd
km/h
Gust
km/h
Spd
kts
Gust
kts
26/11:30pm 12.2 10.8 9.0 81 1.6 SE 6 9 3 5 1027.5 1027.2 0.0
26/11:00pm 12.5 11.0 8.4 76 2.0 SE 6 11 3 6 1027.7 1027.4 0.0
26/10:30pm 13.2 11.4 7.9 70 2.6 ESE 7 13 4 7 1027.6 1027.3 0.0
26/10:00pm 13.1 11.4 7.5 69 2.7 SE 6 13 3 7 1027.6 1027.3 0.0
26/09:30pm 8.3 7.1 8.0 98 0.1 SSE 4 7 2 4 1027.4 1027.1 0.0
26/09:00pm 7.7 7.1 7.4 98 0.1 CALM 0 0 0 0 1026.9 1026.6 0.0
26/08:30pm 8.2 7.7 7.9 98 0.1 CALM 0 0 0 0 1026.8 1026.5 0.0
26/08:00pm 8.9 8.4 8.0 94 0.4 CALM 0 0 0 0 1026.6 1026.3 0.0
26/07:30pm 9.8 9.2 7.4 85 1.2 CALM 0 0 0 0 1026.4 1026.2 0.0
26/07:00pm 11.2 10.5 6.9 75 2.1 CALM 0 0 0 0 1026.2 1026.0 0.0
26/06:30pm 13.3 12.5 6.6 64 3.2 CALM 0 0 0 0 1025.9 1025.7 0.0
26/06:00pm 16.0 15.1 6.2 52 4.8 CALM 0 4 0 2 1025.8 1025.6 0.0
26/05:30pm 18.2 16.3 5.1 42 6.4 ESE 4 6 2 3 1025.5 1025.3 0.0
26/05:00pm 19.0 16.7 5.5 41 6.6 SE 7 13 4 7 1025.5 1025.3 0.0
26/04:30pm 19.5 16.3 5.2 39 7.0 ESE 11 22 6 12 1025.5 1025.3 0.0
26/04:00pm 20.0 17.2 5.3 38 7.2 ESE 9 15 5 8 1025.3 1025.1 0.0
26/03:30pm 20.5 17.9 6.1 39 7.3 ENE 9 17 5 9 1025.4 1025.2 0.0
26/03:00pm 20.1 17.0 5.7 39 7.1 ESE 11 24 6 13 1025.5 1025.3 0.0
26/02:30pm 19.7 16.5 5.0 38 7.2 ENE 11 20 6 11 1025.6 1025.4 0.0
26/02:00pm 20.2 17.8 7.2 43 6.6 NNE 9 17 5 9 1025.7 1025.5 0.0
26/01:30pm 19.2 16.5 5.6 41 6.7 E 9 17 5 9 1025.9 1025.7 0.0
26/01:00pm 18.7 16.0 7.5 48 5.7 ESE 11 26 6 14 1026.1 1025.9 0.0
26/12:30pm 18.9 16.2 7.4 47 5.9 ESE 11 19 6 10 1026.7 1026.4 0.0
26/12:00pm 18.8 16.2 7.6 48 5.7 E 11 20 6 11 1027.2 1026.9 0.0
26/11:30am 18.0 15.1 8.0 52 5.1 NE 13 24 7 13 1027.7 1027.4 0.0
26/11:00am 17.1 14.4 8.8 58 4.3 ESE 13 20 7 11 1028.1 1027.8 0.0
26/10:30am 16.3 14.1 9.3 63 3.7 E 11 20 6 11 1028.4 1028.1 0.0
26/10:00am 15.3 12.6 9.0 66 3.2 NNE 13 20 7 11 1028.6 1028.3 0.0
26/09:30am 14.3 12.9 9.5 73 2.5 NNE 7 19 4 10 1028.8 1028.5 0.0
26/09:00am 12.7 11.8 10.8 88 1.0 SE 6 15 3 8 1028.8 1028.5 0.0
26/08:30am 10.4 9.8 10.4 100 0.0 SSE 4 6 2 3 1028.7 1028.4 0.0
26/08:00am 6.3 5.5 6.3 100 0.0 CALM 0 0 0 0 1028.7 1028.4 0.0
26/07:30am 4.3 3.0 4.3 100 0.0 CALM 0 0 0 0 1028.4 1028.1 0.0
26/07:00am 2.8 1.3 2.8 100 0.0 CALM 0 0 0 0 1028.2 1027.9 0.0
26/06:30am 3.0 1.5 3.0 100 0.0 CALM 0 0 0 0 1028.2 1027.9 0.0
26/06:00am 2.9 1.4 2.9 100 0.0 CALM 0 0 0 0 1028.0 1027.7 0.0
26/05:30am 3.2 1.7 3.2 100 0.0 CALM 0 0 0 0 1028.0 1027.7 0.0
26/05:00am 3.2 1.7 3.2 100 0.0 CALM 0 0 0 0 1027.9 1027.6 0.0
26/04:30am 3.4 2.0 3.4 100 0.0 CALM 0 0 0 0 1027.8 1027.5 0.0
26/04:00am 3.5 2.1 3.5 100 0.0 CALM 0 0 0 0 1027.8 1027.5 0.0
26/03:30am 4.4 3.2 4.4 100 0.0 CALM 0 0 0 0 1027.6 1027.3 0.0
26/03:00am 4.4 3.2 4.4 100 0.0 CALM 0 0 0 0 1027.7 1027.4 0.0
26/02:30am 4.6 3.4 4.6 100 0.0 CALM 0 0 0 0 1027.8 1027.5 0.0
26/02:00am 4.8 3.6 4.8 100 0.0 CALM 0 0 0 0 1027.8 1027.5 0.0
26/01:30am 5.4 4.4 5.4 100 0.0 CALM 0 0 0 0 1027.9 1027.6 0.0
26/01:00am 5.5 4.5 5.5 100 0.0 CALM 0 0 0 0 1027.7 1027.4 0.0
26/12:30am 5.7 4.7 5.6 99 0.0 CALM 0 0 0 0 1027.8 1027.5 0.0
26/12:00am 6.4 5.6 6.3 99 0.0 CALM 0 0 0 0 1027.6 1027.3 0.0
 
Date/Time
WST
Temp
°C
App
Temp
°C
Dew
Point
Rel
Hum
%
Delta-T
°C
Wind Press
QNH
hPa
Press
MSL
hPa
Rain
since 9 am
mm
Dir
 
Spd
km/h
Gust
km/h
Spd
kts
Gust
kts
25/11:30pm 7.6 6.6 7.5 99 0.0 SSE 2 4 1 2 1027.7 1027.4 0.0
25/11:00pm 6.3 5.0 6.2 99 0.0 SSE 2 6 1 3 1027.9 1027.6 0.0
25/10:30pm 5.3 4.2 5.3 100 0.0 CALM 0 0 0 0 1028.0 1027.7 0.0
25/10:00pm 5.2 4.1 5.2 100 0.0 CALM 0 0 0 0 1028.1 1027.8 0.0
25/09:30pm 5.7 4.7 5.6 99 0.0 CALM 0 0 0 0 1028.1 1027.8 0.0
25/09:00pm 6.3 5.4 6.2 99 0.0 CALM 0 0 0 0 1028.1 1027.8 0.0
25/08:30pm 6.5 5.7 6.4 99 0.0 CALM 0 0 0 0 1027.7 1027.4 0.0
25/08:00pm 7.2 6.5 6.9 98 0.1 CALM 0 0 0 0 1027.6 1027.3 0.0
25/07:30pm 8.2 7.7 7.9 98 0.1 CALM 0 0 0 0 1027.4 1027.1 0.0
25/07:00pm 9.5 8.9 7.4 87 1.0 CALM 0 0 0 0 1027.3 1027.0 0.0
25/06:30pm 11.4 10.6 6.5 72 2.3 CALM 0 0 0 0 1027.0 1026.7 0.0

Other Formats:

Comma delimited format used in spreadsheet applications
http://www.bom.gov.au/fwo/IDW60801/IDW60801.95632.axf

JavaScript Object Notation format (JSON) in row-major order
http://www.bom.gov.au/fwo/IDW60801/IDW60801.95632.json